Terminal Aerodrome Forecast
Issued by NWS

Home | Current Version | Previous Version | Text Only | Print | Product List | Glossary On
Versions: 1 2 3 4 5 6 7 8 9 10 11 12 13 14 15 16 17 18 19 20
000
FTUS43 KDVN 051746
TAFBRL
TAF
KBRL 051746Z 0518/0618 20006KT P6SM SCT040 BKN100
     FM060000 13006KT P6SM BKN080
     FM061200 17010KT P6SM SCT100=

USA.gov is the U.S. government's official web portal to all federal, state and local government web resources and services.